Hanalei, HI

5:07 AM HST on August 30, 2014 (GMT -1000)
North Shore of Kauai | Change Station
CLOSE
Current Station
Personal Weather Station
Location: Princeville, HI
Elevation: 200 ft
Nearby Weather Stations
Active Advisory: High Surf Advisory

Elev 200 ft 22.23 °N, 159.48 °W | Updated 5 seconds ago

Partly Cloudy
Partly Cloudy
69.5 °F
Feels Like 69.5 °F
N
3.4
Wind Variable Wind from SSE
Gusts 3.4 mph

Today
High -- | Low -- °F
--% Chance of Precip.
Yesterday
High -- | Low -- °F
Precip. -- in
6:20 AM 6:56 PM
Waxing Crescent, 22% visible
Pressure 29.93 in
Visibility 10.0 miles
Clouds Few 2300 ft
Dew Point 67 °F
Humidity 91%
Rainfall 0.00 in
Snow Depth Not available.
UV 0 out of 12
Pollen Not available.
Air Quality Not available.
Flu Activity Not available.
METAR PHLI 301453Z 29005KT 10SM FEW023 23/19 A2993 RMK AO2 SLP133 T02280194 55001 $

More Conditions Fewer Conditions

Pressure 29.93 in
Visibility 10.0 miles
Clouds Few 2300 ft
Dew Point 67 °F
Humidity 91%
Rainfall 0.00 in
Snow Depth Not available.
UV 0 out of 12
Pollen Not available.
Air Quality Not available.
Flu Activity Not available.
METAR PHLI 301453Z 29005KT 10SM FEW023 23/19 A2993 RMK AO2 SLP133 T02280194 55001 $

More Conditions Fewer Conditions

10-Day Weather Forecast

Almanac

Astronomy

Aug. 30, 2014 Rise Set
Actual Time 6:20 AM HST 6:56 PM HST
Civil Twilight 5:57 AM HST 7:19 PM HST
Nautical Twilight 5:30 AM HST 7:45 PM HST
Astronomical Twilight 5:03 AM HST 8:12 PM HST
Moon 10:40 AM HST 10:19 PM HST
Length of Visible Light 13h 21m
Length of Day
12h 36m
Tomorrow will be 1m 13s shorter.
Waxing Crescent, 22% of the Moon is Illuminated
Today
Waxing Crescent
Sep 2
First Quarter
Sep 8
Full
Sep 15
Last Quarter
Sep 24
New

Today's Extremes

State Highs State Lows

Community

WunderPhotos

Upload Photos

1,748,536 photos uploaded!

WunderBlogs® & News

Nearby

Snow Depth

Station Depth Elevation
No new snow has been reported.

Earthquake Activity

City Distance Mag. Time & Date
No recent earthquake activity has been reported nearby.
Minimum magnitude displayed is 2.5.

Coastal Water Temperatures

Place Temperature
No Stations Reporting

Nearby Weather Stations